Flight Track Log - Related Links

Times and Time Zones

All times are in EST time to prevent confusion due to time zone crossing. See the SWA932 flight status page for this flight to view local times or setup timezone preferences in your user account.

Time Position Orientation Groundspeed Altitude Reporting Facility
EST Latitude Longitude Course Direction KTS MPH feet Rate Location/Type
Sat 11:44:43 AM 29.6331 -95.2631 33° Northeast 142 163 900  Level Houston Center
Sat 11:45:14 AM 29.6458 -95.2422 55° Northeast 194 223 1,400 1,867 Climbing Houston Center
Sat 11:46:13 AM 29.7025 -95.2572 347° North 235 270 3,700 2,507 Climbing Houston Center
Sat 11:46:21 AM 29.7192 -95.2644 339° North 255 293 4,200 3,484 Climbing Houston Center
Sat 11:47:15 AM 29.7725 -95.2864 340° North 258 297 7,300 3,362 Climbing Houston Center
Sat 11:48:17 AM 29.8467 -95.3197 339° North 281 323 10,700 2,855 Climbing Houston Center
Sat 11:49:19 AM 29.9611 -95.3233 358° North 371 427 13,200 2,661 Climbing Houston Center
Sat 11:50:00 AM 30.1731 -94.6780 33° Northeast  Level Estimated
Sat 11:50:21 AM 30.0586 -95.2522 32° Northeast 408 470 16,200  Level Houston Center
Sat 11:51:23 AM 30.1586 -95.1800 32° Northeast 420 483 19,000 2,613 Climbing Houston Center
Sat 11:52:25 AM 30.2619 -95.1053 32° Northeast 432 497 21,600 2,352 Climbing Houston Center
Sat 11:53:28 AM 30.3686 -95.0267 32° Northeast 448 516 23,900 2,112 Climbing Houston Center
Sat 11:54:30 AM 30.4861 -94.9414 32° Northeast 464 534 26,000 1,887 Climbing Houston Center
Sat 11:55:32 AM 30.5986 -94.8567 33° Northeast 479 551 27,800 1,935 Climbing Houston Center
Sat 11:56:34 AM 30.7103 -94.7714 33° Northeast 481 554 30,000 2,226 Climbing Houston Center
Sat 11:57:36 AM 30.8422 -94.6697 33° Northeast 477 549 32,400 1,984 Climbing Houston Center
Sat 11:58:38 AM 30.9503 -94.5850 34° Northeast 473 544 34,100 1,694 Climbing Houston Center
Sat 11:59:40 AM 31.0572 -94.5028 33° Northeast 468 539 35,900 1,403 Climbing Houston Center
Sat 12:00:42 PM 31.1622 -94.4200 34° Northeast 463 533 37,000 532 Climbing Houston Center
Sat 12:01:44 PM 31.2681 -94.3381 33° Northeast 462 532 37,000  Level Houston Center
Sat 12:02:47 PM 31.3967 -94.2383 33° Northeast 464 534 37,000  Level Houston Center
Sat 12:03:49 PM 31.5036 -94.1539 34° Northeast 465 535 37,000 145 Level Houston Center
Sat 12:04:51 PM 31.6106 -94.0694 34° Northeast 464 534 37,300 484 Climbing Houston Center
Sat 12:05:53 PM 31.7181 -93.9842 34° Northeast 465 535 38,000 339 Climbing Houston Center
Sat 12:06:55 PM 31.8433 -93.8828 35° Northeast 476 548 38,000  Level Houston Center
Sat 12:07:57 PM 31.9328 -93.7642 48° Northeast 486 559 38,000  Level Houston Center
Sat 12:08:59 PM 32.0167 -93.6381 52° Northeast 488 562 38,000 97 Level Houston Center
Sat 12:10:01 PM 32.1014 -93.5147 51° Northeast 484 557 38,200 508 Climbing Houston Center
Sat 12:10:57 PM 32.1783 -93.4019 51° Northeast 487 560 39,000 407 Climbing Fort Worth Center
Sat 12:11:59 PM 32.2622 -93.2772 51° Northeast 487 560 39,000  Level Fort Worth Center
Sat 12:13:01 PM 32.3625 -93.1269 52° Northeast 488 562 39,000  Level Fort Worth Center
Sat 12:14:03 PM 32.4461 -93.0014 52° Northeast 487 560 39,000  Level Fort Worth Center
Sat 12:15:05 PM 32.5289 -92.8758 52° Northeast 487 560 39,000  Level Fort Worth Center
Sat 12:16:07 PM 32.6119 -92.7494 52° Northeast 488 562 39,000  Level Fort Worth Center
Sat 12:17:09 PM 32.6956 -92.6242 52° Northeast 487 560 39,000  Level Fort Worth Center
Sat 12:18:12 PM 32.7967 -92.4714 52° Northeast 491 565 39,000  Level Fort Worth Center
Sat 12:19:14 PM 32.8800 -92.3425 52° Northeast 493 567 39,000  Level Fort Worth Center
Sat 12:20:16 PM 32.9633 -92.2164 52° Northeast 488 562 39,000  Level Fort Worth Center
Sat 12:21:18 PM 33.0469 -92.0892 52° Northeast 488 562 39,000  Level Fort Worth Center
Sat 12:22:20 PM 33.1297 -91.9606 52° Northeast 488 562 39,000  Level Fort Worth Center
Sat 12:23:22 PM 33.2133 -91.8317 52° Northeast 491 565 39,000  Level Fort Worth Center
Sat 12:24:24 PM 33.3136 -91.6772 52° Northeast 491 565 39,000  Level Fort Worth Center
Sat 12:25:41 PM 33.4139 -91.5228 52° Northeast 491 565 39,000  Level Memphis Center
Sat 12:26:43 PM 33.4975 -91.3928 52° Northeast 491 565 39,000  Level Memphis Center
Sat 12:27:45 PM 33.5814 -91.2611 53° Northeast 495 570 39,000  Level Memphis Center
Sat 12:28:47 PM 33.6806 -91.1042 53° Northeast 493 567 39,000  Level Memphis Center
Sat 12:29:49 PM 33.7636 -90.9719 53° Northeast 494 568 39,000  Level Memphis Center
Sat 12:31:53 PM 33.9389 -90.6975 52° Northeast 497 572 39,000  Level Memphis Center
Sat 12:32:55 PM 34.0222 -90.5622 53° Northeast 497 572 39,000  Level Memphis Center
Sat 12:33:57 PM 34.1053 -90.4283 53° Northeast 496 571 39,000  Level Memphis Center
Sat 12:34:59 PM 34.1883 -90.2944 53° Northeast 495 570 39,000  Level Memphis Center
Sat 12:36:01 PM 34.2725 -90.1608 53° Northeast 494 568 39,000  Level Memphis Center
Sat 12:37:03 PM 34.3544 -90.0272 53° Northeast 493 567 39,000  Level Memphis Center
Sat 12:38:05 PM 34.4503 -89.8711 53° Northeast 493 567 39,000  Level Memphis Center
Sat 12:39:07 PM 34.5322 -89.7367 53° Northeast 494 568 39,000  Level Memphis Center
Sat 12:40:09 PM 34.6144 -89.6019 53° Northeast 496 571 39,000  Level Memphis Center
Sat 12:41:12 PM 34.6975 -89.4661 53° Northeast 500 575 39,000  Level Memphis Center
Sat 12:42:14 PM 34.7800 -89.3275 54° Northeast 504 580 39,000  Level Memphis Center
Sat 12:43:16 PM 34.8778 -89.1653 54° Northeast 507 583 39,000  Level Memphis Center
Sat 12:44:18 PM 34.9614 -89.0261 54° Northeast 507 583 39,000  Level Memphis Center
Sat 12:45:20 PM 35.0464 -88.8861 53° Northeast 509 586 39,000  Level Memphis Center
Sat 12:46:22 PM 35.1297 -88.7444 54° Northeast 509 586 39,000  Level Memphis Center
Sat 12:47:24 PM 35.2139 -88.6025 54° Northeast 510 587 39,000  Level Memphis Center
Sat 12:48:26 PM 35.2975 -88.4614 54° Northeast 510 587 39,000  Level Memphis Center
Sat 12:49:28 PM 35.3797 -88.3222 54° Northeast 506 582 39,000  Level Memphis Center
Sat 12:50:30 PM 35.4647 -88.1772 54° Northeast 505 581 39,000  Level Memphis Center
Sat 12:51:32 PM 35.5589 -88.0161 54° Northeast 505 581 39,000  Level Memphis Center
Sat 12:52:34 PM 35.6422 -87.8742 54° Northeast 507 583 39,000  Level Memphis Center
Sat 12:53:36 PM 35.7250 -87.7314 54° Northeast 508 585 39,000  Level Memphis Center
Sat 12:54:38 PM 35.8069 -87.5881 55° Northeast 509 586 39,000  Level Memphis Center
Sat 12:55:40 PM 35.8886 -87.4447 55° Northeast 507 583 39,000  Level Memphis Center
Sat 12:56:42 PM 35.9706 -87.3000 55° Northeast 508 585 39,000  Level Memphis Center
Sat 12:57:44 PM 36.0658 -87.1344 55° Northeast 505 581 39,000  Level Memphis Center
Sat 12:58:46 PM 36.1467 -86.9928 55° Northeast 504 580 39,000  Level Memphis Center
Sat 12:59:48 PM 36.2253 -86.8508 56° Northeast 504 580 39,000  Level Memphis Center
Sat 01:00:50 PM 36.3033 -86.7106 55° Northeast 505 581 39,000  Level Memphis Center
Sat 01:01:52 PM 36.3967 -86.5444 55° Northeast 505 581 39,000  Level Memphis Center
Sat 01:02:54 PM 36.4778 -86.4000 55° Northeast 507 583 39,000  Level Memphis Center
Sat 01:03:56 PM 36.5578 -86.2528 56° Northeast 509 586 39,000  Level Memphis Center
Sat 01:04:58 PM 36.6397 -86.1058 55° Northeast 511 588 39,000  Level Memphis Center
Sat 01:06:00 PM 36.7208 -85.9581 56° Northeast 512 589 39,000  Level Memphis Center
Sat 01:07:02 PM 36.8028 -85.8108 55° Northeast 513 590 39,000  Level Memphis Center
Sat 01:08:04 PM 36.8831 -85.6608 56° Northeast 513 590 39,000  Level Memphis Center
Sat 01:09:07 PM 36.9592 -85.4750 63° Northeast 512 589 39,000  Level Memphis Center
Sat 01:10:09 PM 37.0203 -85.3175 64° Northeast 516 594 39,000  Level Memphis Center
Sat 01:11:11 PM 37.0817 -85.1564 64° Northeast 512 589 39,000  Level Memphis Center
Sat 01:12:27 PM 37.1589 -84.9603 64° Northeast 512 589 39,000  Level Indianapolis Center
Sat 01:13:29 PM 37.2525 -84.7903 55° Northeast 507 583 39,000  Level Indianapolis Center
Sat 01:14:30 PM 37.3358 -84.6433 54° Northeast 512 589 39,000  Level Indianapolis Center
Sat 01:15:32 PM 37.4175 -84.4967 55° Northeast 511 588 39,000  Level Indianapolis Center
Sat 01:16:34 PM 37.5008 -84.3486 55° Northeast 514 592 39,000  Level Indianapolis Center
Sat 01:17:35 PM 37.5836 -84.2008 55° Northeast 515 593 39,000  Level Indianapolis Center
Sat 01:18:37 PM 37.6667 -84.0508 55° Northeast 516 594 39,000  Level Indianapolis Center
Sat 01:19:38 PM 37.7497 -83.9031 55° Northeast 516 594 39,000  Level Indianapolis Center
Sat 01:20:40 PM 37.8308 -83.7531 56° Northeast 515 593 39,000  Level Indianapolis Center
Sat 01:21:42 PM 37.9292 -83.5739 55° Northeast 523 602 39,000  Level Indianapolis Center
Sat 01:22:43 PM 38.0103 -83.4244 55° Northeast 515 593 39,000  Level Indianapolis Center
Sat 01:23:45 PM 38.0919 -83.2758 55° Northeast 512 589 39,000  Level Indianapolis Center
Sat 01:24:46 PM 38.1753 -83.1181 56° Northeast 529 609 39,000  Level Indianapolis Center
Sat 01:25:48 PM 38.2575 -82.9647 56° Northeast 525 604 39,000 -435 Level Indianapolis Center
Sat 01:26:50 PM 38.3392 -82.8125 56° Northeast 520 598 38,100 -878 Descending Indianapolis Center
Sat 01:27:51 PM 38.4194 -82.6611 56° Northeast 515 593 37,200 -927 Descending Indianapolis Center
Sat 01:28:53 PM 38.5003 -82.5094 56° Northeast 516 594 36,200 -1,065 Descending Indianapolis Center
Sat 01:29:55 PM 38.5814 -82.3547 56° Northeast 513 590 35,000 -1,512 Descending Indianapolis Center
Sat 01:30:56 PM 38.6606 -82.2008 57° Northeast 515 593 33,100 -1,756 Descending Indianapolis Center
Sat 01:31:58 PM 38.7411 -82.0442 57° Northeast 523 602 31,400 -1,415 Descending Indianapolis Center
Sat 01:32:59 PM 38.8206 -81.8897 57° Northeast 518 596 30,200 -1,073 Descending Indianapolis Center
Sat 01:34:01 PM 38.8981 -81.7389 57° Northeast 501 577 29,200 -1,113 Descending Indianapolis Center
Sat 01:35:03 PM 39.0256 -81.6131 37° Northeast 474 545 27,900 -1,610 Descending Indianapolis Center
Sat 01:36:04 PM 39.1375 -81.5256 31° Northeast 468 539 25,900 -2,244 Descending Indianapolis Center
Sat 01:37:06 PM 39.2492 -81.4353 32° Northeast 471 542 23,300 -2,274 Descending Indianapolis Center
Sat 01:38:08 PM 39.3567 -81.3489 32° Northeast 458 527 21,200 -1,122 Descending Indianapolis Center
Sat 01:39:09 PM 39.4572 -81.2697 31° Northeast 427 491 21,000 -98 Descending Indianapolis Center
Sat 01:40:11 PM 39.5569 -81.1903 32° Northeast 422 486 21,000 -339 Level Indianapolis Center
Sat 01:41:13 PM 39.6572 -81.1092 32° Northeast 423 487 20,300 -1,268 Descending Indianapolis Center
Sat 01:42:14 PM 39.7567 -81.0289 32° Northeast 420 483 18,400 -1,805 Descending Indianapolis Center
Sat 01:43:16 PM 39.8531 -80.9497 32° Northeast 411 473 16,600 -2,098 Descending Indianapolis Center
Sat 01:44:17 PM 39.9600 -80.8628 32° Northeast 402 463 14,100 -2,195 Descending Indianapolis Center
Sat 01:45:19 PM 40.0469 -80.7778 37° Northeast 392 451 12,100 -1,935 Descending Indianapolis Center
Sat 01:46:21 PM 40.1250 -80.6792 44° Northeast 387 445 10,100 -1,024 Descending Indianapolis Center
Sat 01:47:22 PM 40.1994 -80.5858 44° Northeast 376 433 10,000 -390 Descending Indianapolis Center
Sat 01:48:24 PM 40.2658 -80.5022 44° Northeast 344 396 9,300 -968 Descending Indianapolis Center
Sat 01:49:26 PM 40.3264 -80.4131 48° Northeast 330 380 8,000 -1,317 Descending Indianapolis Center
Sat 01:50:27 PM 40.3767 -80.2919 61° Northeast 322 371 6,600 -878 Descending Indianapolis Center
Sat 01:51:29 PM 40.4144 -80.1972 62° Northeast 313 360 6,200 -585 Descending Indianapolis Center
Sat 01:52:30 PM 40.4358 -80.1269 68° East 267 307 5,400 -683 Descending Indianapolis Center
Sat 01:53:32 PM 40.4817 -80.1181 North 242 278 4,800 -1,417 Descending Indianapolis Center
Sat 01:54:54 PM 40.4994 -80.1814 290° West 149 171 2,000 -2,049 Descending Cleveland Center

Login

Don't have an account? Register now (free) for customized features, flight alerts, and more!